Time;durP1;ratioP1;P1;durP2;ratioP2;P2;SDS_P1;SDS_P2;PMS_P1;PMS_P2;Temp;Humidity;BMP_temperature;BMP_pressure;BME280_temperature;BME280_humidity;BME280_pressure;Samples;Min_cycle;Max_cycle;Signal;HPM_P1;HPM_P2
2021/10/04 00:01:15;;;;;;;12.60;7.38;;;17.20;99.90;;;;;;4999362;28;20499;-66
2021/10/04 00:04:19;;;;;;;13.75;7.32;;;17.10;99.90;;;;;;5011520;28;20053;-66
2021/10/04 00:07:23;;;;;;;11.70;7.07;;;17.10;99.90;;;;;;5011447;28;20041;-66
2021/10/04 00:10:27;;;;;;;14.48;7.32;;;17.10;99.90;;;;;;5011169;28;20049;-66
2021/10/04 00:13:32;;;;;;;10.60;7.90;;;17.10;99.90;;;;;;5011280;28;20053;-66
2021/10/04 00:16:37;;;;;;;11.75;8.00;;;17.00;99.90;;;;;;5011254;28;20045;-65
2021/10/04 00:19:41;;;;;;;13.68;7.50;;;17.00;99.90;;;;;;5010667;28;20057;-65
2021/10/04 00:22:45;;;;;;;15.70;8.23;;;17.00;99.90;;;;;;5010800;28;20069;-66
2021/10/04 00:25:50;;;;;;;15.50;7.60;;;17.00;99.90;;;;;;5011113;28;20045;-66
2021/10/04 00:28:54;;;;;;;11.82;7.65;;;16.90;99.90;;;;;;5010515;28;20421;-66
2021/10/04 00:31:58;;;;;;;11.05;7.53;;;16.90;99.90;;;;;;5010718;28;20053;-66
2021/10/04 00:35:03;;;;;;;14.27;7.00;;;16.90;99.90;;;;;;5010966;28;20072;-65
2021/10/04 00:38:07;;;;;;;14.82;7.00;;;16.90;99.90;;;;;;5010251;28;20049;-66
2021/10/04 00:41:12;;;;;;;11.98;6.93;;;16.90;99.90;;;;;;5010852;28;20528;-65
2021/10/04 00:44:16;;;;;;;15.27;7.80;;;17.00;99.90;;;;;;5010674;28;20040;-65
2021/10/04 00:47:20;;;;;;;14.65;7.90;;;16.90;99.90;;;;;;5010838;28;20503;-65
2021/10/04 00:50:25;;;;;;;16.83;7.63;;;16.90;99.90;;;;;;5009925;28;20385;-65
2021/10/04 00:53:29;;;;;;;14.55;8.13;;;16.90;99.90;;;;;;5010441;28;20113;-65
2021/10/04 00:56:33;;;;;;;13.82;8.23;;;16.90;99.90;;;;;;5010723;28;20067;-66
2021/10/04 00:59:37;;;;;;;18.15;9.27;;;16.80;99.90;;;;;;5010296;28;20049;-66
2021/10/04 01:02:42;;;;;;;14.55;8.10;;;16.80;99.90;;;;;;5010214;28;20065;-65
2021/10/04 01:05:45;;;;;;;14.93;8.73;;;16.70;99.90;;;;;;5010527;28;20045;-65
2021/10/04 01:08:49;;;;;;;12.48;7.82;;;16.70;99.90;;;;;;5009813;28;20045;-67
2021/10/04 01:11:55;;;;;;;17.98;8.88;;;16.70;99.90;;;;;;5010258;28;20041;-66
2021/10/04 01:15:00;;;;;;;15.00;8.77;;;16.70;99.90;;;;;;5010273;28;20053;-66
2021/10/04 01:18:07;;;;;;;18.80;10.38;;;16.50;99.90;;;;;;5010067;28;20033;-66
2021/10/04 01:21:12;;;;;;;17.38;8.95;;;16.50;99.90;;;;;;5010174;28;20507;-66
2021/10/04 01:24:17;;;;;;;17.60;9.63;;;16.40;99.90;;;;;;5010226;28;20036;-66
2021/10/04 01:27:21;;;;;;;19.30;9.75;;;16.40;99.90;;;;;;5010207;28;20041;-66
2021/10/04 01:30:27;;;;;;;17.05;9.65;;;16.40;99.90;;;;;;5010026;28;20041;-66
2021/10/04 01:33:31;;;;;;;19.58;9.40;;;16.50;99.90;;;;;;5010025;28;20495;-66
2021/10/04 01:36:35;;;;;;;18.48;10.40;;;16.50;99.90;;;;;;5010054;28;20040;-66
2021/10/04 01:39:39;;;;;;;14.30;9.23;;;16.50;99.90;;;;;;5009777;28;20486;-66
2021/10/04 01:42:45;;;;;;;19.60;9.50;;;16.60;99.90;;;;;;5010042;28;20575;-66
2021/10/04 01:45:49;;;;;;;17.05;9.15;;;16.60;99.90;;;;;;5009867;28;20053;-66
2021/10/04 01:48:53;;;;;;;15.70;8.80;;;16.60;99.90;;;;;;5009644;28;20041;-66
2021/10/04 01:51:57;;;;;;;16.55;8.48;;;16.50;99.90;;;;;;5010120;28;20045;-65
2021/10/04 01:55:01;;;;;;;13.50;8.93;;;16.60;99.90;;;;;;5010115;28;20049;-65
2021/10/04 01:58:06;;;;;;;17.65;9.93;;;16.60;99.90;;;;;;5009932;28;20045;-65
2021/10/04 02:01:10;;;;;;;13.70;8.90;;;16.70;99.90;;;;;;5013053;28;20069;-66
2021/10/04 02:04:15;;;;;;;14.43;8.77;;;16.70;99.90;;;;;;5013776;28;20052;-66
2021/10/04 02:07:19;;;;;;;15.32;8.40;;;16.80;99.90;;;;;;5013592;28;20064;-65
2021/10/04 02:10:26;;;;;;;16.15;8.50;;;16.90;99.90;;;;;;5013161;28;20041;-65
2021/10/04 02:13:30;;;;;;;17.08;9.25;;;16.80;99.90;;;;;;5013543;28;20760;-65
2021/10/04 02:16:34;;;;;;;17.45;9.15;;;16.80;99.90;;;;;;5013500;28;20037;-65
2021/10/04 02:19:38;;;;;;;18.67;8.60;;;16.80;99.90;;;;;;5012941;28;20049;-65
2021/10/04 02:22:43;;;;;;;17.92;9.25;;;16.70;99.90;;;;;;5013516;28;20037;-66
2021/10/04 02:25:51;;;;;;;13.75;8.77;;;16.70;99.90;;;;;;5013183;28;20060;-65
2021/10/04 02:28:55;;;;;;;13.70;8.70;;;16.70;99.90;;;;;;5012812;28;20037;-65
2021/10/04 02:32:00;;;;;;;16.08;8.95;;;16.70;99.90;;;;;;5013240;28;20041;-66
2021/10/04 02:35:05;;;;;;;16.70;9.35;;;16.70;99.90;;;;;;5012939;28;20049;-66
2021/10/04 02:38:09;;;;;;;14.88;8.23;;;16.60;99.90;;;;;;5012876;28;20057;-66
2021/10/04 02:41:13;;;;;;;15.20;9.48;;;16.60;99.90;;;;;;5013313;28;20048;-66
2021/10/04 02:44:17;;;;;;;17.75;9.77;;;16.50;99.90;;;;;;5012796;28;20041;-65
2021/10/04 02:47:22;;;;;;;16.85;9.98;;;16.50;99.90;;;;;;5012945;28;20044;-65
2021/10/04 02:50:28;;;;;;;18.90;9.98;;;16.50;99.90;;;;;;5012582;28;20428;-66
2021/10/04 02:53:32;;;;;;;17.40;9.13;;;16.50;99.90;;;;;;5012689;28;20045;-65
2021/10/04 02:56:35;;;;;;;18.67;10.57;;;16.50;99.90;;;;;;5012780;28;20049;-66
2021/10/04 02:59:40;;;;;;;17.92;10.35;;;16.50;99.90;;;;;;5012277;28;20057;-66
2021/10/04 03:02:44;;;;;;;24.65;9.93;;;16.40;99.90;;;;;;5012673;28;20049;-65
2021/10/04 03:05:48;;;;;;;17.40;11.10;;;16.30;99.90;;;;;;5012426;28;20048;-66
2021/10/04 03:08:52;;;;;;;19.67;10.57;;;16.20;99.90;;;;;;5012224;28;20045;-65
2021/10/04 03:11:57;;;;;;;17.10;10.13;;;16.20;99.90;;;;;;5011954;28;20033;-65
2021/10/04 03:15:02;;;;;;;21.20;10.75;;;16.20;99.90;;;;;;5012452;28;20049;-66
2021/10/04 03:18:06;;;;;;;20.02;10.57;;;16.20;99.90;;;;;;5000107;28;20061;-66
2021/10/04 03:21:10;;;;;;;22.00;11.82;;;16.20;99.90;;;;;;5012489;28;20049;-66
2021/10/04 03:24:15;;;;;;;16.67;10.15;;;16.20;99.90;;;;;;5012120;28;20059;-65
2021/10/04 03:27:20;;;;;;;20.88;10.57;;;16.10;99.90;;;;;;5012171;28;20045;-66
2021/10/04 03:30:24;;;;;;;23.20;11.25;;;16.00;99.90;;;;;;5011851;28;20053;-65
2021/10/04 03:33:28;;;;;;;18.23;11.02;;;16.00;99.90;;;;;;5012416;28;20123;-65
2021/10/04 03:36:32;;;;;;;22.15;11.43;;;16.00;99.90;;;;;;5012146;28;20053;-65
2021/10/04 03:39:36;;;;;;;23.85;11.13;;;16.00;99.90;;;;;;5011785;28;20432;-66
2021/10/04 03:42:40;;;;;;;20.92;11.45;;;16.00;99.90;;;;;;5012268;28;20049;-66
2021/10/04 03:45:45;;;;;;;17.88;10.90;;;16.00;99.90;;;;;;5012040;28;20069;-65
2021/10/04 03:48:49;;;;;;;16.10;10.18;;;16.00;99.90;;;;;;5011744;28;20049;-65
2021/10/04 03:51:54;;;;;;;21.23;12.20;;;16.00;99.90;;;;;;5012167;28;20045;-66
2021/10/04 03:54:58;;;;;;;24.38;11.18;;;15.90;99.90;;;;;;5011829;28;20404;-65
2021/10/04 03:58:02;;;;;;;22.00;12.98;;;15.90;99.90;;;;;;5011664;28;20060;-65
2021/10/04 04:01:08;;;;;;;20.58;11.63;;;15.90;99.90;;;;;;5011827;28;20057;-65
2021/10/04 04:04:12;;;;;;;25.05;11.60;;;15.90;99.90;;;;;;5011839;28;20049;-65
2021/10/04 04:07:16;;;;;;;17.77;11.23;;;16.00;99.90;;;;;;4999689;28;20045;-65
2021/10/04 04:10:20;;;;;;;22.48;12.05;;;15.90;99.90;;;;;;5011224;28;20049;-65
2021/10/04 04:13:24;;;;;;;16.48;10.98;;;16.00;99.90;;;;;;5012070;28;20041;-65
2021/10/04 04:16:28;;;;;;;27.42;12.90;;;15.90;99.90;;;;;;5011397;28;20069;-65
2021/10/04 04:19:32;;;;;;;20.85;11.77;;;16.00;99.90;;;;;;5010958;28;20052;-65
2021/10/04 04:22:36;;;;;;;21.65;12.25;;;16.00;99.90;;;;;;5011147;28;20129;-65
2021/10/04 04:25:40;;;;;;;22.45;11.50;;;16.00;99.90;;;;;;5011198;28;20049;-65
2021/10/04 04:28:45;;;;;;;22.10;11.90;;;16.10;99.90;;;;;;5010692;28;20048;-66
2021/10/04 04:31:50;;;;;;;17.08;10.90;;;16.20;99.90;;;;;;5008237;28;20392;-66
2021/10/04 04:34:54;;;;;;;20.60;11.20;;;16.20;99.90;;;;;;5011048;28;20048;-66
2021/10/04 04:37:58;;;;;;;20.85;11.18;;;16.20;99.90;;;;;;5011234;28;20040;-66
2021/10/04 04:41:02;;;;;;;21.75;11.60;;;16.20;99.90;;;;;;5010404;28;20045;-65
2021/10/04 04:44:06;;;;;;;20.98;10.77;;;16.20;99.90;;;;;;5011518;28;20052;-66
2021/10/04 04:47:10;;;;;;;20.63;10.90;;;16.20;99.90;;;;;;5011380;28;20044;-66
2021/10/04 04:50:16;;;;;;;17.88;11.07;;;16.10;99.90;;;;;;5011881;28;20041;-66
2021/10/04 04:53:20;;;;;;;20.52;10.40;;;16.10;99.90;;;;;;5011212;28;20412;-66
2021/10/04 04:56:24;;;;;;;18.75;10.88;;;16.10;99.90;;;;;;5010456;28;20072;-66
2021/10/04 04:59:28;;;;;;;18.08;10.95;;;16.00;99.90;;;;;;5010908;28;20049;-65
2021/10/04 05:02:36;;;;;;;20.05;11.30;;;15.90;99.90;;;;;;5010635;28;20044;-66
2021/10/04 05:05:40;;;;;;;19.33;10.55;;;15.90;99.90;;;;;;5011129;28;20048;-65
2021/10/04 05:08:45;;;;;;;18.17;11.15;;;15.90;99.90;;;;;;5010939;28;20045;-65
2021/10/04 05:11:49;;;;;;;20.30;11.63;;;16.00;99.90;;;;;;5011433;28;20048;-66
2021/10/04 05:14:53;;;;;;;22.15;10.65;;;16.00;99.90;;;;;;5011385;28;20045;-66
2021/10/04 05:17:58;;;;;;;20.08;11.32;;;16.00;99.90;;;;;;5010638;28;20056;-66
2021/10/04 05:21:02;;;;;;;19.35;10.70;;;16.10;99.90;;;;;;5010436;28;20056;-66
2021/10/04 05:24:06;;;;;;;24.17;11.85;;;16.20;99.90;;;;;;5010359;28;20053;-66
2021/10/04 05:27:11;;;;;;;19.80;11.65;;;16.20;99.90;;;;;;5012834;28;20045;-66
2021/10/04 05:30:15;;;;;;;15.50;10.88;;;16.20;99.90;;;;;;5028600;28;20293;-66
2021/10/04 05:33:20;;;;;;;21.13;11.40;;;16.20;99.90;;;;;;4998406;28;20037;-67
2021/10/04 05:36:26;;;;;;;20.30;11.48;;;16.20;99.90;;;;;;5012779;28;20040;-66
2021/10/04 05:39:30;;;;;;;18.58;12.02;;;16.20;99.90;;;;;;5011008;28;20050;-66
2021/10/04 05:42:34;;;;;;;33.20;11.35;;;16.20;99.90;;;;;;5010456;28;20504;-66
2021/10/04 05:45:38;;;;;;;21.40;10.98;;;16.20;99.90;;;;;;5010413;28;20052;-66
2021/10/04 05:48:42;;;;;;;19.77;10.95;;;16.20;99.90;;;;;;5012437;28;20044;-66
2021/10/04 05:51:47;;;;;;;21.25;11.88;;;16.30;99.90;;;;;;5001634;28;20503;-67
2021/10/04 05:54:52;;;;;;;24.33;12.15;;;16.30;99.90;;;;;;5014393;28;20341;-66
2021/10/04 05:57:56;;;;;;;20.40;11.50;;;16.40;99.90;;;;;;5029754;28;20048;-66
2021/10/04 06:01:00;;;;;;;13.85;9.18;;;16.50;99.90;;;;;;5025326;28;20500;-66
2021/10/04 06:04:04;;;;;;;18.77;10.13;;;16.60;99.90;;;;;;5011246;28;20053;-65
2021/10/04 06:07:08;;;;;;;18.02;10.40;;;16.70;99.90;;;;;;5015697;28;20041;-65
2021/10/04 06:10:12;;;;;;;17.42;9.98;;;16.70;99.90;;;;;;5026178;28;20060;-65
2021/10/04 06:13:16;;;;;;;19.45;10.05;;;16.70;99.90;;;;;;5029434;28;20037;-65
2021/10/04 06:16:20;;;;;;;21.17;10.38;;;16.90;99.90;;;;;;5025662;28;20049;-66
2021/10/04 06:19:24;;;;;;;18.45;9.95;;;16.80;99.90;;;;;;5026372;28;20496;-66
2021/10/04 06:22:28;;;;;;;20.30;10.88;;;16.90;99.90;;;;;;5014359;28;20033;-65
2021/10/04 06:25:32;;;;;;;18.67;9.43;;;16.90;99.90;;;;;;5015137;28;20044;-66
2021/10/04 06:28:36;;;;;;;17.98;10.18;;;17.10;99.90;;;;;;5012966;28;20045;-65
2021/10/04 06:31:40;;;;;;;20.05;10.70;;;17.10;99.90;;;;;;5021197;28;20070;-66
2021/10/04 06:34:44;;;;;;;17.20;8.70;;;17.30;99.90;;;;;;5014082;28;20037;-65
2021/10/04 06:37:48;;;;;;;12.77;7.85;;;17.90;99.90;;;;;;5014811;28;20396;-66
2021/10/04 06:40:53;;;;;;;11.52;7.05;;;18.30;99.90;;;;;;5028056;28;20045;-66
2021/10/04 06:43:58;;;;;;;12.45;7.20;;;19.30;99.90;;;;;;5017335;28;20032;-63
2021/10/04 06:47:03;;;;;;;10.52;5.57;;;20.50;99.90;;;;;;5015258;28;20057;-66
2021/10/04 06:50:11;;;;;;;13.95;7.60;;;20.90;99.90;;;;;;4989030;28;20044;-66
2021/10/04 06:53:15;;;;;;;10.95;8.02;;;19.70;99.90;;;;;;5025736;28;20044;-66
2021/10/04 06:56:20;;;;;;;16.40;8.00;;;19.50;99.90;;;;;;5018284;28;20052;-65
2021/10/04 06:59:24;;;;;;;10.90;7.68;;;19.50;99.90;;;;;;5021988;28;20041;-65
2021/10/04 07:02:28;;;;;;;10.52;6.78;;;19.60;99.90;;;;;;5020697;28;20036;-66
2021/10/04 07:05:32;;;;;;;9.75;6.05;;;21.30;99.90;;;;;;5015262;28;20056;-66
2021/10/04 07:08:36;;;;;;;12.35;6.40;;;22.80;99.90;;;;;;5024768;28;20037;-65
2021/10/04 07:11:40;;;;;;;11.82;7.00;;;22.70;99.90;;;;;;5018356;28;20040;-66
2021/10/04 07:14:45;;;;;;;10.88;6.60;;;21.80;99.90;;;;;;5017667;28;20045;-67
2021/10/04 07:17:49;;;;;;;10.13;5.95;;;21.80;99.90;;;;;;5006352;28;20316;-66
2021/10/04 07:20:53;;;;;;;9.55;5.95;;;22.60;99.90;;;;;;5017867;28;20040;-67
2021/10/04 07:23:57;;;;;;;8.98;5.90;;;21.70;99.90;;;;;;5030305;28;20037;-66
2021/10/04 07:27:03;;;;;;;9.30;6.25;;;23.00;99.90;;;;;;5016320;28;20044;-66
2021/10/04 07:30:08;;;;;;;9.48;6.30;;;23.90;99.90;;;;;;5030620;28;20040;-66
2021/10/04 07:33:12;;;;;;;11.80;5.65;;;24.40;99.90;;;;;;5023856;28;20654;-66
2021/10/04 07:36:16;;;;;;;7.40;5.18;;;26.60;99.90;;;;;;5018471;28;20041;-67
2021/10/04 07:39:21;;;;;;;8.50;5.28;;;25.60;99.90;;;;;;5014909;28;20507;-66
2021/10/04 07:42:25;;;;;;;7.75;5.45;;;26.10;99.90;;;;;;5015423;28;20036;-66
2021/10/04 07:45:32;;;;;;;11.13;5.43;;;26.30;99.90;;;;;;5005579;28;20045;-65
2021/10/04 07:48:36;;;;;;;7.13;4.68;;;27.30;99.90;;;;;;5032129;28;20048;-65
2021/10/04 07:51:40;;;;;;;10.45;5.63;;;25.40;99.90;;;;;;5018513;28;20029;-65
2021/10/04 07:54:45;;;;;;;12.77;6.63;;;24.60;99.90;;;;;;5015936;28;20280;-65
2021/10/04 07:57:49;;;;;;;10.50;6.43;;;23.30;99.90;;;;;;5015408;28;20037;-65
2021/10/04 08:00:53;;;;;;;13.15;5.82;;;23.60;99.90;;;;;;5013695;28;20393;-65
2021/10/04 08:03:57;;;;;;;9.48;5.63;;;23.70;99.90;;;;;;5012100;28;20049;-65
2021/10/04 08:07:01;;;;;;;7.50;5.63;;;24.30;99.90;;;;;;5022016;28;20049;-65
2021/10/04 08:10:08;;;;;;;12.57;5.63;;;25.30;99.90;;;;;;5010812;28;20045;-65
2021/10/04 08:13:12;;;;;;;7.63;5.45;;;24.60;99.90;;;;;;5012299;28;20041;-66
2021/10/04 08:16:23;;;;;;;7.78;5.32;;;24.30;99.90;;;;;;5015096;28;20048;-66
2021/10/04 08:19:27;;;;;;;10.23;6.63;;;23.70;99.90;;;;;;5031878;28;20514;-65
2021/10/04 08:22:33;;;;;;;7.03;5.35;;;23.00;99.90;;;;;;5014911;28;20056;-66
2021/10/04 08:25:37;;;;;;;8.30;5.78;;;23.10;99.90;;;;;;5017389;28;20212;-65
2021/10/04 08:28:41;;;;;;;13.00;6.40;;;22.70;99.90;;;;;;5027076;28;20041;-64
2021/10/04 08:31:45;;;;;;;10.88;7.15;;;22.40;99.90;;;;;;5011391;28;20041;-65
2021/10/04 08:34:50;;;;;;;11.55;7.60;;;22.30;99.90;;;;;;5014358;28;20045;-65
2021/10/04 08:37:54;;;;;;;10.43;6.90;;;21.80;99.90;;;;;;5017461;28;20425;-65
2021/10/04 08:40:59;;;;;;;17.27;8.00;;;21.90;99.90;;;;;;5006216;28;20045;-65
2021/10/04 08:44:09;;;;;;;12.10;7.88;;;21.80;99.90;;;;;;5027337;28;20395;-65
2021/10/04 08:47:14;;;;;;;12.68;6.95;;;21.90;99.90;;;;;;5029089;28;20523;-65
2021/10/04 08:50:18;;;;;;;10.43;7.22;;;22.00;99.90;;;;;;5017804;28;20044;-65
2021/10/04 08:53:23;;;;;;;11.25;6.45;;;22.00;99.90;;;;;;5015836;28;20048;-65
2021/10/04 08:56:28;;;;;;;11.77;7.05;;;22.10;99.90;;;;;;5014218;28;20037;-65
2021/10/04 08:59:32;;;;;;;9.77;7.03;;;22.00;99.90;;;;;;5012487;28;20036;-65
2021/10/04 09:02:37;;;;;;;10.25;6.80;;;22.10;99.90;;;;;;5007814;28;20515;-65
2021/10/04 09:05:44;;;;;;;12.23;7.00;;;22.10;99.90;;;;;;5025246;28;20420;-65
2021/10/04 09:09:02;;;;;;;14.07;7.30;;;22.10;99.90;;;;;;5011634;28;20041;-66
2021/10/04 09:12:06;;;;;;;10.65;7.05;;;22.20;99.90;;;;;;5014077;28;20113;-65
2021/10/04 09:15:19;;;;;;;11.75;6.95;;;22.30;99.90;;;;;;5026171;28;20045;-65
2021/10/04 09:18:31;;;;;;;10.25;6.32;;;22.40;99.90;;;;;;5018701;28;20040;-66
2021/10/04 09:21:35;;;;;;;10.40;6.72;;;22.50;99.90;;;;;;5019051;28;20037;-66
2021/10/04 09:24:41;;;;;;;10.07;7.20;;;22.60;99.90;;;;;;5016554;28;20028;-66
2021/10/04 09:27:47;;;;;;;12.93;7.00;;;22.60;99.90;;;;;;5018697;28;20427;-65
2021/10/04 09:30:54;;;;;;;10.90;7.57;;;22.40;99.90;;;;;;5015372;28;20053;-65
2021/10/04 09:33:57;;;;;;;8.93;7.55;;;22.30;99.90;;;;;;5026082;28;20041;-66
2021/10/04 09:37:02;;;;;;;10.95;7.47;;;22.20;99.90;;;;;;5010874;28;20037;-65
2021/10/04 09:40:35;;;;;;;13.38;7.50;;;22.20;99.90;;;;;;5024350;28;20404;-66
2021/10/04 09:43:39;;;;;;;10.07;6.78;;;22.10;99.90;;;;;;5021062;28;20503;-66
2021/10/04 09:46:43;;;;;;;8.82;6.90;;;22.20;99.90;;;;;;5013243;28;20076;-66
2021/10/04 09:49:59;;;;;;;14.27;7.25;;;22.30;99.90;;;;;;5012966;28;20049;-66
2021/10/04 09:53:05;;;;;;;11.57;6.68;;;22.60;99.90;;;;;;5013676;28;20044;-65
2021/10/04 09:56:24;;;;;;;13.85;7.53;;;22.90;99.90;;;;;;5015019;28;20048;-66
2021/10/04 09:59:31;;;;;;;10.70;6.40;;;23.40;99.90;;;;;;5018209;28;20503;-65
2021/10/04 10:02:36;;;;;;;8.80;5.90;;;23.90;99.90;;;;;;5018075;28;20045;-66
2021/10/04 10:05:43;;;;;;;7.88;6.03;;;24.30;99.90;;;;;;5016146;28;20049;-66
2021/10/04 10:08:48;;;;;;;10.43;6.18;;;24.70;99.90;;;;;;5016559;28;20041;-66
2021/10/04 10:11:52;;;;;;;10.75;6.10;;;25.40;99.90;;;;;;5020813;28;20057;-65
2021/10/04 10:14:56;;;;;;;9.07;5.50;;;26.80;99.90;;;;;;5017323;28;20041;-66
2021/10/04 10:18:26;;;;;;;6.70;5.20;;;27.30;99.90;;;;;;5019185;28;20488;-65
2021/10/04 10:21:34;;;;;;;8.45;5.32;;;26.90;99.90;;;;;;5016734;28;20420;-66
2021/10/04 10:24:39;;;;;;;6.57;4.90;;;27.50;99.90;;;;;;5019841;28;20045;-66
2021/10/04 10:27:43;;;;;;;8.68;5.05;;;27.70;99.90;;;;;;5027047;28;20500;-66
2021/10/04 10:30:52;;;;;;;9.00;5.25;;;28.40;99.90;;;;;;5008034;28;20057;-67
2021/10/04 10:33:56;;;;;;;8.82;4.57;;;28.70;99.80;;;;;;5017549;28;20043;-65
2021/10/04 10:37:18;;;;;;;15.45;8.50;;;29.60;98.90;;;;;;5011991;28;20057;-65
2021/10/04 10:40:27;;;;;;;45.05;29.27;;;29.40;98.40;;;;;;5022558;28;20060;-66
2021/10/04 10:44:11;;;;;;;8.35;6.07;;;27.50;99.60;;;;;;5019519;28;20037;-67
2021/10/04 10:47:37;;;;;;;14.10;8.70;;;30.30;97.60;;;;;;5022136;28;20040;-66
2021/10/04 10:50:46;;;;;;;11.25;7.00;;;30.50;96.20;;;;;;5023849;28;20032;-66
2021/10/04 10:53:51;;;;;;;20.27;10.93;;;29.50;97.20;;;;;;5021255;28;20049;-66
2021/10/04 10:56:55;;;;;;;8.73;4.93;;;29.60;97.10;;;;;;5004672;28;20057;-67
2021/10/04 11:00:21;;;;;;;5.88;4.43;;;29.40;97.00;;;;;;5019494;28;20049;-66
2021/10/04 11:03:26;;;;;;;8.38;4.82;;;29.40;97.00;;;;;;5012917;28;20049;-66
2021/10/04 11:06:44;;;;;;;9.00;4.57;;;29.50;96.90;;;;;;5013293;28;20033;-66
2021/10/04 11:10:05;;;;;;;9.63;4.60;;;30.80;95.50;;;;;;5019937;28;20045;-66
2021/10/04 11:13:09;;;;;;;7.13;4.53;;;30.70;95.10;;;;;;5025959;28;20040;-67
2021/10/04 11:16:26;;;;;;;7.57;4.90;;;29.90;95.60;;;;;;5020605;28;20052;-66
2021/10/04 11:19:35;;;;;;;6.78;4.55;;;28.90;96.00;;;;;;5018715;28;20062;-66
2021/10/04 11:22:41;;;;;;;7.97;4.22;;;30.50;95.70;;;;;;5012368;28;20049;-67
2021/10/04 11:25:46;;;;;;;9.02;5.53;;;32.50;93.80;;;;;;5028537;28;20048;-67
2021/10/04 11:28:53;;;;;;;7.50;4.00;;;33.20;91.80;;;;;;5030002;28;20044;-67
2021/10/04 11:31:57;;;;;;;6.95;3.88;;;33.40;91.30;;;;;;5018530;28;20068;-67
2021/10/04 11:35:13;;;;;;;9.32;5.47;;;34.70;90.50;;;;;;5018433;28;20049;-66
2021/10/04 11:38:17;;;;;;;6.93;4.60;;;32.70;90.20;;;;;;5023561;28;20045;-66
2021/10/04 11:41:43;;;;;;;7.22;4.47;;;32.30;90.70;;;;;;5021197;28;20041;-67
2021/10/04 11:44:47;;;;;;;9.68;5.00;;;32.30;90.90;;;;;;5022733;28;20045;-67
2021/10/04 11:47:52;;;;;;;6.97;4.38;;;30.10;92.60;;;;;;5020526;28;20048;-67
2021/10/04 11:50:57;;;;;;;11.95;4.93;;;31.20;92.00;;;;;;5025845;28;20048;-67
2021/10/04 11:54:02;;;;;;;10.10;5.85;;;29.80;93.00;;;;;;5020960;28;20040;-66
2021/10/04 11:57:20;;;;;;;11.50;5.15;;;27.70;95.40;;;;;;5020631;28;20033;-67
2021/10/04 12:00:24;;;;;;;8.50;5.25;;;30.20;93.40;;;;;;5014122;28;20102;-67
2021/10/04 12:03:33;;;;;;;13.23;5.90;;;31.00;92.60;;;;;;5018090;28;20591;-66
2021/10/04 12:06:41;;;;;;;7.63;5.18;;;30.00;93.40;;;;;;5024198;28;20420;-67
2021/10/04 12:09:54;;;;;;;8.68;5.13;;;31.10;92.30;;;;;;5019012;28;20696;-67
2021/10/04 12:12:58;;;;;;;9.35;5.18;;;31.80;91.80;;;;;;5019847;28;20045;-67
2021/10/04 12:16:08;;;;;;;8.52;5.07;;;32.30;91.10;;;;;;5021875;28;20064;-66
2021/10/04 12:19:13;;;;;;;8.13;5.25;;;31.40;91.10;;;;;;5017532;28;20032;-68
2021/10/04 12:22:31;;;;;;;8.30;4.75;;;29.90;92.80;;;;;;5019034;28;20048;-67
2021/10/04 12:25:35;;;;;;;9.52;4.78;;;31.10;92.10;;;;;;5022142;28;20511;-67
2021/10/04 12:28:48;;;;;;;7.03;4.88;;;30.30;92.30;;;;;;5013751;28;20049;-68
2021/10/04 12:31:52;;;;;;;8.65;5.20;;;29.60;92.60;;;;;;5015932;28;20040;-66
2021/10/04 12:35:14;;;;;;;6.78;5.18;;;28.30;93.80;;;;;;5015537;28;20040;-67
2021/10/04 12:38:19;;;;;;;9.25;6.43;;;27.90;94.80;;;;;;5014598;28;20056;-66
2021/10/04 12:41:44;;;;;;;7.78;5.03;;;27.70;95.40;;;;;;5018586;28;20526;-67
2021/10/04 12:44:49;;;;;;;11.27;6.38;;;27.50;95.30;;;;;;5022784;28;20044;-66
2021/10/04 12:47:55;;;;;;;11.50;5.97;;;26.70;96.70;;;;;;5019437;28;20048;-66
2021/10/04 12:51:19;;;;;;;7.57;5.47;;;27.30;96.10;;;;;;5019409;28;20048;-67
2021/10/04 12:54:33;;;;;;;9.93;5.72;;;27.40;96.00;;;;;;5019307;28;20515;-66
2021/10/04 12:57:39;;;;;;;11.50;6.47;;;27.10;96.00;;;;;;5008169;28;20045;-66
2021/10/04 13:00:44;;;;;;;10.75;6.05;;;26.60;96.20;;;;;;5014461;28;20053;-66
2021/10/04 13:03:57;;;;;;;10.57;6.03;;;26.10;97.00;;;;;;5017085;28;20053;-66
2021/10/04 13:07:05;;;;;;;10.57;6.60;;;25.90;97.60;;;;;;5023667;28;20045;-66
2021/10/04 13:10:09;;;;;;;7.20;5.40;;;26.00;98.00;;;;;;5015980;28;20420;-66
2021/10/04 13:13:13;;;;;;;8.55;5.75;;;27.80;95.80;;;;;;5018679;28;20156;-67
2021/10/04 13:16:17;;;;;;;9.27;5.43;;;27.60;95.50;;;;;;5019083;28;20056;-66
2021/10/04 13:19:22;;;;;;;9.85;5.20;;;28.50;95.20;;;;;;5018863;28;20049;-67
2021/10/04 13:22:26;;;;;;;9.75;5.40;;;29.10;94.20;;;;;;5020511;28;20045;-66
2021/10/04 13:25:30;;;;;;;11.18;5.53;;;28.10;94.90;;;;;;5017163;28;20397;-67
2021/10/04 13:28:36;;;;;;;8.63;5.07;;;28.70;94.60;;;;;;5021870;28;20486;-68
2021/10/04 13:31:40;;;;;;;11.10;5.35;;;28.20;94.80;;;;;;5019131;28;20389;-67
2021/10/04 13:34:44;;;;;;;7.47;5.10;;;28.50;94.70;;;;;;5018337;28;20332;-67
2021/10/04 13:37:48;;;;;;;9.55;5.20;;;28.20;94.50;;;;;;5022202;28;20048;-66
2021/10/04 13:40:52;;;;;;;8.43;5.40;;;27.60;95.40;;;;;;5021412;28;20048;-65
2021/10/04 13:43:56;;;;;;;6.93;5.18;;;27.50;95.70;;;;;;5021472;28;20041;-67
2021/10/04 13:47:00;;;;;;;8.88;4.88;;;28.70;94.60;;;;;;5018741;28;20041;-67
2021/10/04 13:50:07;;;;;;;10.05;5.47;;;28.60;94.30;;;;;;5020089;28;20377;-69
2021/10/04 13:53:11;;;;;;;15.90;5.13;;;29.10;93.90;;;;;;5024783;28;20061;-66
2021/10/04 13:56:17;;;;;;;8.52;5.32;;;30.10;93.40;;;;;;5022127;28;20514;-67
2021/10/04 13:59:21;;;;;;;8.65;5.72;;;29.30;93.30;;;;;;5020214;28;20033;-67
2021/10/04 14:02:25;;;;;;;10.52;5.50;;;27.80;94.50;;;;;;5017915;28;20512;-67
2021/10/04 14:05:30;;;;;;;8.88;5.88;;;26.80;96.00;;;;;;5023092;28;20057;-67
2021/10/04 14:08:34;;;;;;;9.05;5.38;;;26.40;96.70;;;;;;5023574;28;20527;-66
2021/10/04 14:11:39;;;;;;;9.35;5.45;;;26.60;96.50;;;;;;5025758;28;20049;-66
2021/10/04 14:14:43;;;;;;;11.15;6.38;;;26.40;96.80;;;;;;5023189;28;20052;-67
2021/10/04 14:17:47;;;;;;;10.23;5.68;;;26.00;96.90;;;;;;5017359;28;20043;-66
2021/10/04 14:20:51;;;;;;;11.07;6.20;;;25.70;98.00;;;;;;5023304;28;20427;-66
2021/10/04 14:23:56;;;;;;;12.70;6.53;;;25.50;97.90;;;;;;5021772;28;20045;-66
2021/10/04 14:27:00;;;;;;;14.75;6.72;;;25.20;97.90;;;;;;5018833;28;20526;-66
2021/10/04 14:30:04;;;;;;;8.98;6.07;;;25.10;98.30;;;;;;5020304;28;20602;-66
2021/10/04 14:33:10;;;;;;;9.75;6.78;;;25.10;98.50;;;;;;5024137;28;20504;-66
2021/10/04 14:36:14;;;;;;;8.98;6.50;;;25.10;98.70;;;;;;5021681;28;20056;-66
2021/10/04 14:39:19;;;;;;;12.25;6.47;;;25.10;98.50;;;;;;5021142;28;20040;-66
2021/10/04 14:42:23;;;;;;;10.68;6.28;;;25.10;98.80;;;;;;5020225;28;20045;-66
2021/10/04 14:45:27;;;;;;;9.13;6.10;;;25.10;98.80;;;;;;5019048;28;20061;-66
2021/10/04 14:55:26;;;;;;;13.07;6.68;;;25.40;98.00;;;;;;5109089;27;20589;-50
2021/10/04 14:58:31;;;;;;;11.45;6.82;;;25.30;98.50;;;;;;5102328;28;20036;-52
2021/10/04 15:01:37;;;;;;;8.57;6.10;;;25.40;98.50;;;;;;5093834;28;20505;-48
2021/10/04 15:04:42;;;;;;;7.88;6.13;;;25.50;98.40;;;;;;5092181;28;20502;-50
2021/10/04 15:07:46;;;;;;;12.55;6.13;;;25.50;98.50;;;;;;5074790;28;20028;-48
2021/10/04 15:10:50;;;;;;;9.73;6.85;;;25.50;98.60;;;;;;5080156;28;20890;-48
2021/10/04 15:13:56;;;;;;;10.48;6.97;;;25.60;98.40;;;;;;5084616;28;20032;-49
2021/10/04 15:16:59;;;;;;;16.95;7.25;;;25.60;98.50;;;;;;5084038;28;20059;-52
2021/10/04 15:20:06;;;;;;;12.27;6.88;;;25.50;98.70;;;;;;5086113;28;20219;-49
2021/10/04 15:23:12;;;;;;;9.15;6.90;;;25.30;98.90;;;;;;5078903;28;20039;-48
2021/10/04 15:26:16;;;;;;;11.60;6.88;;;25.30;99.00;;;;;;5079193;28;20036;-49
2021/10/04 15:29:20;;;;;;;16.55;7.47;;;25.20;99.30;;;;;;5079742;28;20047;-48
2021/10/04 15:32:24;;;;;;;9.10;7.05;;;25.10;99.30;;;;;;5084912;28;20039;-51
2021/10/04 15:35:28;;;;;;;9.52;6.88;;;25.30;99.20;;;;;;5082284;28;20040;-51
2021/10/04 15:38:33;;;;;;;14.77;7.65;;;25.10;99.50;;;;;;5081113;28;20032;-52
2021/10/04 15:41:37;;;;;;;12.85;8.20;;;25.10;99.50;;;;;;5069690;28;20044;-51
2021/10/04 15:44:42;;;;;;;10.40;7.40;;;25.10;99.50;;;;;;5082649;28;20047;-48
2021/10/04 15:47:46;;;;;;;14.23;7.97;;;25.20;99.50;;;;;;5085822;28;20047;-49
2021/10/04 15:50:52;;;;;;;14.10;7.00;;;25.20;99.60;;;;;;5073082;28;20043;-49
2021/10/04 15:53:57;;;;;;;9.60;7.03;;;25.10;99.70;;;;;;5085753;28;20610;-52
2021/10/04 15:57:01;;;;;;;12.02;7.35;;;24.90;99.90;;;;;;5085089;28;20573;-48
2021/10/04 16:00:08;;;;;;;16.55;8.25;;;24.80;99.90;;;;;;5073188;28;20424;-48
2021/10/04 16:03:13;;;;;;;15.27;8.32;;;24.60;99.90;;;;;;5073126;28;20469;-49